createdAt,value
2018-03-20T00:05:19.000Z,1007.972
2018-03-20T00:15:19.000Z,1007.925
2018-03-20T00:25:19.000Z,1008.039
2018-03-20T00:35:19.000Z,1008.083
2018-03-20T00:45:20.000Z,1007.981
2018-03-20T00:55:20.000Z,1008.065
2018-03-20T01:05:20.000Z,1008.02
2018-03-20T01:15:20.000Z,1007.923
2018-03-20T01:25:23.000Z,1007.865
2018-03-20T01:35:20.000Z,1007.709
2018-03-20T01:45:20.000Z,1007.375
2018-03-20T01:55:20.000Z,1007.549
2018-03-20T02:05:20.000Z,1007.504
2018-03-20T02:15:20.000Z,1007.347
2018-03-20T02:25:20.000Z,1007.226
2018-03-20T02:35:20.000Z,1007.043
2018-03-20T02:45:20.000Z,1007.007
2018-03-20T02:55:20.000Z,1006.965
2018-03-20T03:05:20.000Z,1006.938
2018-03-20T03:15:20.000Z,1006.872
2018-03-20T03:25:20.000Z,1006.784
2018-03-20T03:35:20.000Z,1006.815
2018-03-20T03:45:20.000Z,1006.856
2018-03-20T03:55:20.000Z,1006.906
2018-03-20T04:05:20.000Z,1006.973
2018-03-20T04:15:20.000Z,1006.924
2018-03-20T04:25:20.000Z,1006.914
2018-03-20T04:35:20.000Z,1006.917
2018-03-20T04:45:20.000Z,1006.962
2018-03-20T04:55:20.000Z,1006.931
2018-03-20T05:05:20.000Z,1006.966
2018-03-20T05:15:20.000Z,1006.983
2018-03-20T05:25:20.000Z,1007.029
2018-03-20T05:35:20.000Z,1007.084
2018-03-20T05:45:20.000Z,1007.01
2018-03-20T05:55:20.000Z,1007.051
2018-03-20T06:05:20.000Z,1007.151
2018-03-20T06:15:20.000Z,1007.228
2018-03-20T06:25:20.000Z,1007.195
2018-03-20T06:35:20.000Z,1007.432
2018-03-20T06:45:20.000Z,1007.573
2018-03-20T06:55:20.000Z,1007.788
2018-03-20T07:05:20.000Z,1007.987
2018-03-20T07:15:20.000Z,1008.091
2018-03-20T07:25:20.000Z,1008.361
2018-03-20T07:35:20.000Z,1008.568
2018-03-20T07:45:20.000Z,1008.763
2018-03-20T07:55:21.000Z,1008.863
2018-03-20T08:05:20.000Z,1008.863
2018-03-20T08:15:20.000Z,1009.036
2018-03-20T08:25:20.000Z,1009.254
2018-03-20T08:35:20.000Z,1009.403
2018-03-20T08:45:20.000Z,1009.617
2018-03-20T08:55:20.000Z,1009.797
2018-03-20T09:05:21.000Z,1009.973
2018-03-20T09:15:21.000Z,1010.179
2018-03-20T09:25:21.000Z,1010.335
2018-03-20T09:35:21.000Z,1010.428
2018-03-20T09:45:21.000Z,1010.574
2018-03-20T09:55:21.000Z,1010.742
2018-03-20T10:05:21.000Z,1010.841
2018-03-20T10:15:21.000Z,1010.988
2018-03-20T10:25:21.000Z,1011.12
2018-03-20T10:35:21.000Z,1011.14
2018-03-20T10:45:21.000Z,1011.139
2018-03-20T10:55:21.000Z,1011.313
2018-03-20T11:05:21.000Z,1011.406
2018-03-20T11:15:21.000Z,1011.506
2018-03-20T11:25:21.000Z,1011.627
2018-03-20T11:35:21.000Z,1011.614
2018-03-20T11:45:21.000Z,1011.791
2018-03-20T11:55:21.000Z,1011.929
2018-03-20T12:05:21.000Z,1012.089
2018-03-20T12:15:21.000Z,1012.221
2018-03-20T12:25:21.000Z,1012.275
2018-03-20T12:35:21.000Z,1012.391
2018-03-20T12:45:21.000Z,1012.489
2018-03-20T12:55:21.000Z,1012.619
2018-03-20T13:05:21.000Z,1012.726
2018-03-20T13:15:21.000Z,1012.831
2018-03-20T13:25:21.000Z,1012.851
2018-03-20T13:35:21.000Z,1012.921
2018-03-20T13:45:21.000Z,1013.095
2018-03-20T13:55:21.000Z,1013.149
2018-03-20T14:05:21.000Z,1013.146
2018-03-20T14:15:21.000Z,1013.208
2018-03-20T14:25:21.000Z,1013.319
2018-03-20T14:35:21.000Z,1013.398
2018-03-20T14:45:21.000Z,1013.521
2018-03-20T14:55:21.000Z,1013.643
2018-03-20T15:05:21.000Z,1013.784
2018-03-20T15:15:21.000Z,1013.906
2018-03-20T15:25:21.000Z,1014.091
2018-03-20T15:35:23.000Z,1014.165
2018-03-20T15:45:21.000Z,1014.318
2018-03-20T15:55:21.000Z,1014.482
2018-03-20T16:05:21.000Z,1014.519
2018-03-20T16:15:21.000Z,1014.731
2018-03-20T16:25:21.000Z,1014.942
2018-03-20T16:35:21.000Z,1015.095
2018-03-20T16:45:21.000Z,1015.41
2018-03-20T16:55:21.000Z,1015.629
2018-03-20T17:05:21.000Z,1015.799
2018-03-20T17:15:21.000Z,1015.88
2018-03-20T17:25:22.000Z,1016.011
2018-03-20T17:35:22.000Z,1016.202
2018-03-20T17:45:22.000Z,1016.314
2018-03-20T17:55:22.000Z,1016.413
2018-03-20T18:05:22.000Z,1016.598
2018-03-20T18:15:22.000Z,1016.67
2018-03-20T18:25:22.000Z,1016.819
2018-03-20T18:35:22.000Z,1016.996
2018-03-20T18:45:22.000Z,1017.141
2018-03-20T18:55:22.000Z,1017.271
2018-03-20T19:05:22.000Z,1017.428
2018-03-20T19:15:22.000Z,1017.58
2018-03-20T19:25:22.000Z,1017.717
2018-03-20T19:35:22.000Z,1017.92
2018-03-20T19:45:22.000Z,1018.078
2018-03-20T19:55:22.000Z,1018.257
2018-03-20T20:05:22.000Z,1018.384
2018-03-20T20:15:22.000Z,1018.519
2018-03-20T20:25:22.000Z,1018.622
2018-03-20T20:35:22.000Z,1018.737
2018-03-20T20:45:22.000Z,1018.846
2018-03-20T20:55:22.000Z,1018.913
2018-03-20T21:05:22.000Z,1019.064
2018-03-20T21:15:22.000Z,1019.095
2018-03-20T21:25:22.000Z,1019.094
2018-03-20T21:35:22.000Z,1019.137
2018-03-20T21:45:22.000Z,1019.196
2018-03-20T21:55:22.000Z,1019.224
2018-03-20T22:05:22.000Z,1019.304
2018-03-20T22:15:22.000Z,1019.386
2018-03-20T22:25:22.000Z,1019.414
2018-03-20T22:35:22.000Z,1019.55
2018-03-20T22:45:22.000Z,1019.566
2018-03-20T22:55:22.000Z,1019.802
2018-03-20T23:05:22.000Z,1019.854
2018-03-20T23:15:22.000Z,1019.963
2018-03-20T23:25:22.000Z,1019.99
2018-03-20T23:35:22.000Z,1019.985
2018-03-20T23:45:22.000Z,1019.996
2018-03-20T23:55:22.000Z,1019.977
